createdAt,value
2019-04-06T00:02:28.553Z,34.23
2019-04-06T00:05:29.418Z,35.10
2019-04-06T00:08:30.185Z,34.67
2019-04-06T00:11:31.065Z,33.23
2019-04-06T00:14:31.862Z,33.20
2019-04-06T00:17:32.581Z,35.00
2019-04-06T00:20:21.381Z,34.60
2019-04-06T00:23:29.409Z,33.23
2019-04-06T00:26:37.425Z,34.87
2019-04-06T00:29:45.466Z,36.17
2019-04-06T00:32:57.744Z,33.70
2019-04-06T00:36:05.834Z,35.17
2019-04-06T00:39:13.866Z,35.27
2019-04-06T00:45:49.056Z,34.60
2019-04-06T00:48:57.081Z,34.27
2019-04-06T00:52:05.170Z,35.30
2019-04-06T00:55:13.274Z,35.60
2019-04-06T00:58:21.304Z,36.30
2019-04-06T01:01:29.348Z,36.37
2019-04-06T01:04:37.448Z,35.43
2019-04-06T01:07:45.521Z,35.30
2019-04-06T01:10:53.553Z,37.00
2019-04-06T01:13:54.729Z,37.20
2019-04-06T01:16:55.533Z,35.30
2019-04-06T01:19:56.277Z,37.17
2019-04-06T01:22:56.966Z,38.77
2019-04-06T01:26:06.627Z,36.53
2019-04-06T01:28:58.461Z,36.17
2019-04-06T01:32:06.497Z,37.50
2019-04-06T01:35:14.530Z,37.17
2019-04-06T01:38:22.540Z,37.67
2019-04-06T01:41:30.569Z,36.47
2019-04-06T01:44:38.617Z,37.00
2019-04-06T01:47:46.724Z,37.53
2019-04-06T01:50:54.754Z,37.37
2019-04-06T01:54:02.777Z,37.00
2019-04-06T01:57:10.793Z,36.07
2019-04-06T02:00:18.889Z,36.60
2019-04-06T02:03:26.905Z,36.33
2019-04-06T02:06:34.933Z,37.80
2019-04-06T02:09:42.971Z,36.33
2019-04-06T02:12:51.004Z,36.90
2019-04-06T02:15:51.849Z,34.87
2019-04-06T02:18:52.669Z,36.33
2019-04-06T02:21:54.728Z,34.53
2019-04-06T02:24:55.282Z,34.57
2019-04-06T02:27:56.331Z,36.73
2019-04-06T02:31:07.808Z,37.23
2019-04-06T02:38:01.283Z,35.87
2019-04-06T02:41:06.647Z,37.97
2019-04-06T02:44:07.763Z,37.23
2019-04-06T02:47:08.524Z,39.50
2019-04-06T02:50:08.866Z,41.10
2019-04-06T02:53:09.723Z,41.93
2019-04-06T02:56:10.430Z,39.80
2019-04-06T02:59:11.344Z,42.27
2019-04-06T03:02:11.766Z,42.37
2019-04-06T03:05:12.445Z,41.63
2019-04-06T03:08:13.101Z,42.27
2019-04-06T03:11:13.830Z,41.57
2019-04-06T03:14:14.477Z,40.83
2019-04-06T03:17:15.158Z,40.90
2019-04-06T03:20:16.004Z,41.23
2019-04-06T03:23:16.682Z,39.53
2019-04-06T03:26:17.722Z,39.57
2019-04-06T03:29:18.154Z,40.70
2019-04-06T03:32:18.807Z,39.77
2019-04-06T03:35:19.383Z,40.27
2019-04-06T03:38:20.190Z,39.67
2019-04-06T03:41:21.061Z,40.40
2019-04-06T03:44:21.887Z,39.70
2019-04-06T03:47:23.034Z,36.20
2019-04-06T03:50:23.657Z,37.10
2019-04-06T03:53:24.569Z,38.13
2019-04-06T03:56:25.113Z,38.40
2019-04-06T03:59:25.940Z,38.57
2019-04-06T04:02:27.218Z,38.33
2019-04-06T04:05:27.936Z,37.50
2019-04-06T04:08:28.765Z,44.77
2019-04-06T04:11:29.680Z,41.40
2019-04-06T04:14:30.567Z,39.67
2019-04-06T04:17:31.101Z,39.03
2019-04-06T04:20:31.990Z,38.43
2019-04-06T04:23:33.211Z,37.40
2019-04-06T04:26:34.347Z,37.87
2019-04-06T04:29:35.223Z,37.97
2019-04-06T04:32:35.893Z,37.13
2019-04-06T04:35:36.687Z,37.80
2019-04-06T04:38:37.517Z,37.73
2019-04-06T04:41:39.846Z,37.27
2019-04-06T04:44:41.150Z,36.13
2019-04-06T04:47:42.010Z,36.23
2019-04-06T04:50:42.809Z,36.07
2019-04-06T04:53:43.774Z,36.00
2019-04-06T04:56:43.000Z,35.40
2019-04-06T04:59:51.054Z,37.27
2019-04-06T05:06:12.983Z,34.10
2019-04-06T05:09:21.018Z,35.87
2019-04-06T05:12:29.109Z,34.63
2019-04-06T05:15:29.678Z,35.50
2019-04-06T05:18:30.683Z,35.13
2019-04-06T05:21:31.509Z,33.97
2019-04-06T05:24:32.361Z,35.13
2019-04-06T05:27:33.125Z,34.80
2019-04-06T05:30:33.893Z,34.53
2019-04-06T05:33:34.804Z,34.30
2019-04-06T05:36:35.981Z,34.33
2019-04-06T05:39:36.697Z,34.27
2019-04-06T05:42:37.537Z,35.03
2019-04-06T05:45:38.324Z,32.80
2019-04-06T05:48:39.012Z,34.63
2019-04-06T05:51:39.671Z,32.53
2019-04-06T05:54:40.410Z,34.07
2019-04-06T05:57:41.105Z,34.30
2019-04-06T06:00:41.950Z,34.43
2019-04-06T06:03:43.092Z,34.13
2019-04-06T06:06:43.770Z,34.10
2019-04-06T06:09:44.434Z,34.53
2019-04-06T06:12:45.315Z,33.87
2019-04-06T06:15:46.269Z,33.97
2019-04-06T06:18:46.801Z,33.67
2019-04-06T06:21:47.481Z,34.03
2019-04-06T06:24:48.509Z,31.97
2019-04-06T06:27:49.614Z,33.33
2019-04-06T06:30:50.298Z,32.73
2019-04-06T06:33:51.029Z,33.13
2019-04-06T06:36:52.151Z,31.53
2019-04-06T06:39:52.702Z,33.53
2019-04-06T06:42:56.650Z,32.10
2019-04-06T06:45:57.542Z,33.13
2019-04-06T06:48:58.293Z,32.63
2019-04-06T06:51:59.236Z,33.07
2019-04-06T06:54:59.873Z,32.63
2019-04-06T06:58:00.793Z,32.47
2019-04-06T07:01:03.221Z,33.57
2019-04-06T07:04:04.539Z,32.07
2019-04-06T07:07:05.055Z,32.57
2019-04-06T07:10:06.480Z,32.00
2019-04-06T07:13:09.058Z,32.73
2019-04-06T07:16:10.051Z,30.17
2019-04-06T07:19:10.763Z,31.97
2019-04-06T07:22:11.345Z,32.50
2019-04-06T07:25:12.010Z,33.20
2019-04-06T07:28:12.593Z,32.83
2019-04-06T07:31:13.303Z,33.57
2019-04-06T07:34:14.214Z,31.87
2019-04-06T07:37:15.239Z,32.57
2019-04-06T07:40:15.972Z,32.43
2019-04-06T07:43:16.551Z,32.23
2019-04-06T07:46:17.613Z,31.00
2019-04-06T07:49:18.355Z,31.40
2019-04-06T07:52:19.281Z,31.50
2019-04-06T07:55:20.042Z,31.47
2019-04-06T07:58:21.057Z,30.60
2019-04-06T08:01:21.773Z,27.80
2019-04-06T08:04:22.448Z,28.90
2019-04-06T08:07:23.275Z,30.73
2019-04-06T08:10:24.232Z,30.27
2019-04-06T08:13:25.093Z,29.73
2019-04-06T08:16:25.992Z,30.43
2019-04-06T08:19:26.913Z,30.53
2019-04-06T08:22:27.514Z,29.30
2019-04-06T08:25:28.341Z,31.27
2019-04-06T08:28:29.327Z,29.97
2019-04-06T08:31:29.853Z,30.40
2019-04-06T08:34:30.736Z,30.67
2019-04-06T08:37:31.676Z,30.67
2019-04-06T08:40:32.710Z,30.47
2019-04-06T08:43:33.362Z,29.93
2019-04-06T08:46:34.273Z,31.00
2019-04-06T08:49:35.056Z,31.53
2019-04-06T08:52:35.807Z,31.63
2019-04-06T08:55:36.793Z,29.83
2019-04-06T08:58:37.354Z,29.57
2019-04-06T09:01:37.865Z,31.10
2019-04-06T09:04:38.693Z,29.90
2019-04-06T09:07:40.697Z,29.70
2019-04-06T09:10:42.177Z,31.97
2019-04-06T09:13:43.137Z,31.07
2019-04-06T09:16:43.941Z,30.27
2019-04-06T09:19:44.933Z,31.77
2019-04-06T09:22:45.629Z,32.27
2019-04-06T09:25:46.167Z,31.93
2019-04-06T09:28:46.802Z,32.03
2019-04-06T09:31:47.685Z,33.27
2019-04-06T09:34:48.676Z,32.40
2019-04-06T09:37:49.289Z,31.40
2019-04-06T09:40:50.111Z,32.83
2019-04-06T09:43:50.949Z,31.73
2019-04-06T09:47:10.537Z,34.63
2019-04-06T09:53:48.597Z,28.77
2019-04-06T09:57:11.478Z,40.35
2019-04-06T10:00:20.282Z,33.73
2019-04-06T10:03:31.473Z,33.10
2019-04-06T10:06:37.958Z,33.50
2019-04-06T10:10:01.011Z,34.07
2019-04-06T10:13:13.215Z,38.15
2019-04-06T10:16:33.366Z,33.07
2019-04-06T10:19:54.708Z,32.37
2019-04-06T10:23:13.910Z,33.07
2019-04-06T10:26:33.626Z,31.50
2019-04-06T10:29:48.844Z,31.33
2019-04-06T10:32:55.430Z,31.60
2019-04-06T10:36:10.610Z,32.40
2019-04-06T10:39:19.956Z,31.83
2019-04-06T10:42:39.462Z,32.23
2019-04-06T10:45:58.910Z,30.93
2019-04-06T10:49:05.700Z,30.87
2019-04-06T10:52:27.549Z,32.47
2019-04-06T10:55:35.045Z,30.20
2019-04-06T10:58:43.663Z,31.93
2019-04-06T11:02:01.261Z,31.80
2019-04-06T11:05:20.934Z,30.80
2019-04-06T11:08:40.814Z,32.20
2019-04-06T11:12:00.587Z,30.23
2019-04-06T11:15:20.714Z,30.80
2019-04-06T11:18:39.562Z,31.13
2019-04-06T11:21:51.764Z,30.47
2019-04-06T11:28:22.033Z,30.20
2019-04-06T11:31:44.861Z,29.90
2019-04-06T11:35:06.912Z,29.33
2019-04-06T11:41:35.529Z,28.50
2019-04-06T11:44:55.617Z,27.67
2019-04-06T11:48:15.890Z,26.93
2019-04-06T11:51:29.949Z,28.17
2019-04-06T11:54:42.961Z,27.43
2019-04-06T11:58:01.661Z,25.40
2019-04-06T12:01:21.602Z,26.80
2019-04-06T12:04:28.176Z,25.30
2019-04-06T12:07:41.125Z,26.23
2019-04-06T12:11:00.808Z,25.73
2019-04-06T12:14:20.278Z,24.43
2019-04-06T12:17:30.431Z,25.07
2019-04-06T12:20:50.217Z,24.97
2019-04-06T12:24:09.882Z,22.57
2019-04-06T12:27:29.635Z,23.97
2019-04-06T12:30:49.511Z,24.20
2019-04-06T12:34:09.082Z,24.13
2019-04-06T12:37:36.194Z,23.87
2019-04-06T12:41:03.339Z,22.07
2019-04-06T12:44:30.541Z,23.20
2019-04-06T12:47:57.658Z,19.13
2019-04-06T12:51:25.142Z,17.43
2019-04-06T12:54:52.267Z,17.70
2019-04-06T12:58:19.389Z,14.97
2019-04-06T13:01:46.518Z,16.57
2019-04-06T13:05:13.653Z,13.17
2019-04-06T13:08:40.967Z,12.47
2019-04-06T13:12:08.163Z,12.90
2019-04-06T13:15:28.269Z,13.60
2019-04-06T13:22:19.831Z,14.70
2019-04-06T13:25:40.474Z,15.97
2019-04-06T13:29:00.702Z,15.77
2019-04-06T13:32:11.498Z,16.00
2019-04-06T13:35:31.329Z,16.60
2019-04-06T13:38:51.152Z,16.90
2019-04-06T13:42:11.283Z,17.00
2019-04-06T13:45:17.524Z,17.13
2019-04-06T13:48:26.580Z,18.23
2019-04-06T13:51:47.603Z,18.73
2019-04-06T13:55:07.538Z,20.20
2019-04-06T13:58:12.717Z,20.60
2019-04-06T14:01:24.394Z,19.70
2019-04-06T14:04:29.938Z,19.87
2019-04-06T14:07:47.369Z,19.27
2019-04-06T14:11:07.725Z,19.50
2019-04-06T14:14:29.580Z,21.47
2019-04-06T14:17:49.704Z,19.10
2019-04-06T14:21:09.273Z,19.67
2019-04-06T14:24:17.193Z,21.10
2019-04-06T14:27:44.576Z,18.77
2019-04-06T14:31:11.943Z,18.33
2019-04-06T14:34:39.342Z,17.83
2019-04-06T14:38:06.902Z,16.70
2019-04-06T14:41:34.221Z,13.93
2019-04-06T14:45:01.382Z,15.73
2019-04-06T14:48:28.776Z,18.00
2019-04-06T14:51:46.011Z,16.83
2019-04-06T14:55:13.252Z,17.50
2019-04-06T14:58:30.835Z,20.40
2019-04-06T15:01:59.463Z,19.40
2019-04-06T15:05:26.831Z,19.57
2019-04-06T15:08:53.957Z,19.63
2019-04-06T15:12:23.202Z,20.50
2019-04-06T15:18:51.546Z,18.87
2019-04-06T15:22:03.295Z,20.23
2019-04-06T15:25:25.181Z,18.33
2019-04-06T15:28:34.262Z,16.77
2019-04-06T15:31:55.441Z,18.17
2019-04-06T15:35:15.312Z,17.97
2019-04-06T15:38:17.593Z,18.93
2019-04-06T15:41:54.764Z,19.40
2019-04-06T15:45:13.533Z,19.07
2019-04-06T15:48:41.306Z,19.60
2019-04-06T15:52:11.430Z,20.20
2019-04-06T15:55:37.379Z,20.77
2019-04-06T15:59:04.559Z,21.37
2019-04-06T16:02:31.678Z,20.37
2019-04-06T16:05:58.869Z,20.60
2019-04-06T16:09:26.048Z,21.50
2019-04-06T16:12:41.452Z,20.73
2019-04-06T16:15:46.656Z,21.70
2019-04-06T16:19:06.125Z,21.23
2019-04-06T16:22:18.600Z,21.83
2019-04-06T16:25:39.411Z,21.73
2019-04-06T16:29:02.351Z,21.30
2019-04-06T16:32:32.813Z,22.80
2019-04-06T16:35:45.673Z,21.17
2019-04-06T16:38:57.701Z,21.17
2019-04-06T16:42:17.667Z,20.80
2019-04-06T16:45:24.341Z,20.57
2019-04-06T16:48:34.721Z,20.93
2019-04-06T16:52:00.925Z,20.77
2019-04-06T16:55:21.079Z,24.80
2019-04-06T16:58:28.326Z,20.97
2019-04-06T17:01:44.040Z,20.87
2019-04-06T17:05:11.166Z,21.03
2019-04-06T17:08:38.261Z,21.40
2019-04-06T17:12:05.387Z,23.17
2019-04-06T17:15:12.305Z,21.00
2019-04-06T17:18:32.686Z,21.13
2019-04-06T17:21:52.749Z,20.63
2019-04-06T17:25:12.292Z,22.13
2019-04-06T17:31:40.308Z,23.33
2019-04-06T17:35:07.518Z,20.53
2019-04-06T17:38:43.297Z,21.73
2019-04-06T17:42:03.571Z,24.13
2019-04-06T17:45:23.218Z,24.37
2019-04-06T17:48:45.774Z,23.63
2019-04-06T17:51:55.444Z,22.63
2019-04-06T17:55:05.897Z,22.13
2019-04-06T17:58:25.843Z,22.23
2019-04-06T18:01:40.011Z,21.53
2019-04-06T18:05:01.175Z,20.87
2019-04-06T18:08:21.466Z,20.67
2019-04-06T18:11:27.693Z,21.60
2019-04-06T18:14:28.429Z,19.70
2019-04-06T18:17:29.261Z,21.90
2019-04-06T18:20:30.190Z,22.10
2019-04-06T18:23:31.099Z,21.63
2019-04-06T18:26:31.941Z,20.57
2019-04-06T18:29:33.045Z,19.50
2019-04-06T18:32:59.684Z,20.57
2019-04-06T18:35:55.258Z,21.57
2019-04-06T18:39:01.636Z,20.10
2019-04-06T18:42:02.194Z,21.43
2019-04-06T18:45:02.693Z,21.03
2019-04-06T18:48:03.641Z,21.13
2019-04-06T18:51:04.367Z,19.90
2019-04-06T18:54:03.468Z,20.93
2019-04-06T18:57:11.650Z,21.97
2019-04-06T19:03:35.644Z,24.30
2019-04-06T19:06:45.449Z,26.33
2019-04-06T19:09:54.921Z,24.47
2019-04-06T19:13:03.182Z,25.13
2019-04-06T19:16:05.304Z,24.93
2019-04-06T19:19:06.189Z,23.63
2019-04-06T19:22:07.610Z,23.93
2019-04-06T19:25:08.625Z,25.07
2019-04-06T19:28:09.425Z,25.23
2019-04-06T19:31:10.273Z,24.30
2019-04-06T19:34:11.448Z,25.27
2019-04-06T19:37:12.493Z,24.27
2019-04-06T19:40:13.436Z,25.07
2019-04-06T19:43:16.967Z,24.17
2019-04-06T19:46:17.209Z,23.50
2019-04-06T19:49:17.911Z,24.43
2019-04-06T19:52:18.745Z,25.97
2019-04-06T19:55:19.523Z,24.03
2019-04-06T19:58:20.463Z,23.00
2019-04-06T20:01:19.765Z,20.80
2019-04-06T20:04:27.961Z,25.33
2019-04-06T20:07:36.544Z,22.60
2019-04-06T20:10:46.320Z,20.83
2019-04-06T20:13:48.381Z,19.70
2019-04-06T20:16:49.578Z,20.07
2019-04-06T20:19:50.819Z,20.27
2019-04-06T20:22:51.583Z,20.17
2019-04-06T20:25:52.305Z,19.40
2019-04-06T20:28:52.968Z,19.20
2019-04-06T20:31:53.914Z,21.57
2019-04-06T20:34:54.795Z,20.90
2019-04-06T20:37:55.570Z,22.97
2019-04-06T20:40:56.243Z,20.63
2019-04-06T20:43:56.858Z,19.63
2019-04-06T20:46:57.791Z,18.47
2019-04-06T20:49:59.004Z,19.73
2019-04-06T20:53:00.312Z,21.13
2019-04-06T20:56:00.962Z,20.23
2019-04-06T20:59:01.581Z,20.70
2019-04-06T21:02:02.896Z,19.83
2019-04-06T21:05:04.169Z,20.80
2019-04-06T21:08:04.854Z,20.27
2019-04-06T21:11:05.541Z,21.23
2019-04-06T21:14:06.426Z,19.70
2019-04-06T21:17:07.108Z,19.00
2019-04-06T21:20:08.055Z,19.37
2019-04-06T21:23:08.674Z,20.50
2019-04-06T21:26:09.628Z,19.87
2019-04-06T21:29:10.081Z,20.00
2019-04-06T21:32:10.712Z,18.67
2019-04-06T21:35:11.392Z,20.27
2019-04-06T21:38:12.258Z,20.13
2019-04-06T21:41:12.844Z,18.43
2019-04-06T21:44:13.639Z,20.30
2019-04-06T21:47:14.562Z,21.43
2019-04-06T21:50:15.149Z,18.80
2019-04-06T21:53:16.259Z,19.90
2019-04-06T21:56:17.154Z,18.73
2019-04-06T21:59:18.164Z,18.83
2019-04-06T22:02:19.298Z,19.93
2019-04-06T22:05:20.241Z,19.23
2019-04-06T22:08:19.516Z,19.23
2019-04-06T22:11:27.690Z,19.90
2019-04-06T22:14:30.560Z,19.70
2019-04-06T22:17:33.556Z,19.47
2019-04-06T22:20:34.396Z,19.70
2019-04-06T22:23:42.321Z,20.20
2019-04-06T22:26:38.374Z,20.73
2019-04-06T22:29:39.671Z,19.90
2019-04-06T22:32:41.305Z,19.57
2019-04-06T22:35:42.449Z,19.20
2019-04-06T22:38:43.390Z,19.40
2019-04-06T22:41:43.992Z,19.53
2019-04-06T22:44:45.221Z,20.37
2019-04-06T22:47:46.307Z,20.77
2019-04-06T22:50:47.611Z,20.57
2019-04-06T22:53:49.193Z,19.67
2019-04-06T22:56:50.195Z,18.77
2019-04-06T22:59:50.861Z,19.67
2019-04-06T23:03:10.638Z,19.00
2019-04-06T23:06:14.302Z,19.70
2019-04-06T23:09:15.021Z,19.40
2019-04-06T23:12:15.615Z,19.37
2019-04-06T23:15:16.479Z,18.87
2019-04-06T23:18:17.182Z,18.67
2019-04-06T23:21:17.838Z,19.00
2019-04-06T23:24:19.302Z,17.83
2019-04-06T23:27:20.479Z,18.47
2019-04-06T23:30:21.539Z,17.10
2019-04-06T23:33:22.744Z,17.40
2019-04-06T23:36:23.718Z,19.30
2019-04-06T23:39:24.125Z,16.73
2019-04-06T23:42:24.999Z,18.33
2019-04-06T23:45:26.243Z,17.40
2019-04-06T23:48:28.013Z,18.67
2019-04-06T23:51:29.251Z,17.57
2019-04-06T23:54:30.093Z,16.73
2019-04-06T23:57:30.638Z,18.43
